sensor_id;sensor_type;location;lat;lon;timestamp;P1;durP1;ratioP1;P2;durP2;ratioP2
10550;SDS011;5324;50.684;3.862;2023-04-25T00:01:46;15.43;;;8.13;;
10550;SDS011;5324;50.684;3.862;2023-04-25T00:04:12;18.47;;;8.57;;
10550;SDS011;5324;50.684;3.862;2023-04-25T00:06:38;15.23;;;8.93;;
10550;SDS011;5324;50.684;3.862;2023-04-25T00:09:04;15.70;;;8.83;;
10550;SDS011;5324;50.684;3.862;2023-04-25T00:11:32;16.40;;;8.83;;
10550;SDS011;5324;50.684;3.862;2023-04-25T00:13:58;18.37;;;9.20;;
10550;SDS011;5324;50.684;3.862;2023-04-25T00:16:27;19.00;;;8.17;;
10550;SDS011;5324;50.684;3.862;2023-04-25T00:18:53;22.97;;;8.47;;
10550;SDS011;5324;50.684;3.862;2023-04-25T00:21:20;17.23;;;8.57;;
10550;SDS011;5324;50.684;3.862;2023-04-25T00:23:47;16.93;;;7.50;;
10550;SDS011;5324;50.684;3.862;2023-04-25T00:26:13;12.93;;;7.37;;
10550;SDS011;5324;50.684;3.862;2023-04-25T00:28:39;13.03;;;7.27;;
10550;SDS011;5324;50.684;3.862;2023-04-25T00:31:06;17.20;;;7.63;;
10550;SDS011;5324;50.684;3.862;2023-04-25T00:33:32;15.87;;;7.57;;
10550;SDS011;5324;50.684;3.862;2023-04-25T00:35:58;12.47;;;6.50;;
10550;SDS011;5324;50.684;3.862;2023-04-25T00:38:24;11.57;;;6.07;;
10550;SDS011;5324;50.684;3.862;2023-04-25T00:40:50;18.03;;;7.13;;
10550;SDS011;5324;50.684;3.862;2023-04-25T00:43:16;12.73;;;6.23;;
10550;SDS011;5324;50.684;3.862;2023-04-25T00:45:42;17.67;;;6.10;;
10550;SDS011;5324;50.684;3.862;2023-04-25T00:48:08;14.97;;;6.63;;
10550;SDS011;5324;50.684;3.862;2023-04-25T00:50:35;12.77;;;6.03;;
10550;SDS011;5324;50.684;3.862;2023-04-25T00:53:01;16.40;;;5.93;;
10550;SDS011;5324;50.684;3.862;2023-04-25T00:55:28;16.03;;;5.80;;
10550;SDS011;5324;50.684;3.862;2023-04-25T00:57:56;12.17;;;6.00;;
10550;SDS011;5324;50.684;3.862;2023-04-25T01:00:22;11.00;;;5.13;;
10550;SDS011;5324;50.684;3.862;2023-04-25T01:02:48;11.00;;;5.37;;
10550;SDS011;5324;50.684;3.862;2023-04-25T01:05:15;11.40;;;5.33;;
10550;SDS011;5324;50.684;3.862;2023-04-25T01:07:43;11.10;;;5.23;;
10550;SDS011;5324;50.684;3.862;2023-04-25T01:10:10;9.67;;;4.93;;
10550;SDS011;5324;50.684;3.862;2023-04-25T01:12:36;11.03;;;5.43;;
10550;SDS011;5324;50.684;3.862;2023-04-25T01:15:03;10.27;;;5.07;;
10550;SDS011;5324;50.684;3.862;2023-04-25T01:17:29;13.20;;;4.80;;
10550;SDS011;5324;50.684;3.862;2023-04-25T01:19:56;11.60;;;4.83;;
10550;SDS011;5324;50.684;3.862;2023-04-25T01:22:22;16.40;;;5.50;;
10550;SDS011;5324;50.684;3.862;2023-04-25T01:24:48;10.93;;;4.60;;
10550;SDS011;5324;50.684;3.862;2023-04-25T01:27:15;9.73;;;5.00;;
10550;SDS011;5324;50.684;3.862;2023-04-25T01:29:41;10.47;;;4.97;;
10550;SDS011;5324;50.684;3.862;2023-04-25T01:32:07;15.53;;;5.43;;
10550;SDS011;5324;50.684;3.862;2023-04-25T01:34:33;12.37;;;4.77;;
10550;SDS011;5324;50.684;3.862;2023-04-25T01:37:00;10.93;;;5.20;;
10550;SDS011;5324;50.684;3.862;2023-04-25T01:39:27;10.07;;;4.97;;
10550;SDS011;5324;50.684;3.862;2023-04-25T01:41:54;9.37;;;4.63;;
10550;SDS011;5324;50.684;3.862;2023-04-25T01:44:20;13.53;;;4.93;;
10550;SDS011;5324;50.684;3.862;2023-04-25T01:46:46;10.60;;;4.23;;
10550;SDS011;5324;50.684;3.862;2023-04-25T01:49:12;10.37;;;4.87;;
10550;SDS011;5324;50.684;3.862;2023-04-25T01:51:38;14.43;;;4.77;;
10550;SDS011;5324;50.684;3.862;2023-04-25T01:54:04;10.90;;;4.70;;
10550;SDS011;5324;50.684;3.862;2023-04-25T01:56:30;8.40;;;4.23;;
10550;SDS011;5324;50.684;3.862;2023-04-25T01:58:57;13.57;;;4.80;;
10550;SDS011;5324;50.684;3.862;2023-04-25T02:01:23;10.40;;;4.47;;
10550;SDS011;5324;50.684;3.862;2023-04-25T02:03:49;10.63;;;4.20;;
10550;SDS011;5324;50.684;3.862;2023-04-25T02:06:15;10.77;;;3.53;;
10550;SDS011;5324;50.684;3.862;2023-04-25T02:08:41;8.73;;;4.07;;
10550;SDS011;5324;50.684;3.862;2023-04-25T02:11:07;7.50;;;3.63;;
10550;SDS011;5324;50.684;3.862;2023-04-25T02:13:33;8.33;;;3.50;;
10550;SDS011;5324;50.684;3.862;2023-04-25T02:15:59;6.97;;;3.13;;
10550;SDS011;5324;50.684;3.862;2023-04-25T02:18:25;8.73;;;3.77;;
10550;SDS011;5324;50.684;3.862;2023-04-25T02:20:51;10.30;;;4.27;;
10550;SDS011;5324;50.684;3.862;2023-04-25T02:23:17;15.87;;;4.23;;
10550;SDS011;5324;50.684;3.862;2023-04-25T02:25:46;6.50;;;3.90;;
10550;SDS011;5324;50.684;3.862;2023-04-25T02:28:12;6.47;;;3.50;;
10550;SDS011;5324;50.684;3.862;2023-04-25T02:30:38;9.00;;;3.93;;
10550;SDS011;5324;50.684;3.862;2023-04-25T02:33:04;9.47;;;3.83;;
10550;SDS011;5324;50.684;3.862;2023-04-25T02:35:30;8.13;;;3.53;;
10550;SDS011;5324;50.684;3.862;2023-04-25T02:37:56;9.87;;;4.13;;
10550;SDS011;5324;50.684;3.862;2023-04-25T02:40:22;9.90;;;4.07;;
10550;SDS011;5324;50.684;3.862;2023-04-25T02:42:48;10.20;;;4.50;;
10550;SDS011;5324;50.684;3.862;2023-04-25T02:45:15;11.73;;;4.60;;
10550;SDS011;5324;50.684;3.862;2023-04-25T02:47:41;11.30;;;4.07;;
10550;SDS011;5324;50.684;3.862;2023-04-25T02:50:07;9.73;;;3.77;;
10550;SDS011;5324;50.684;3.862;2023-04-25T02:52:33;11.67;;;4.87;;
10550;SDS011;5324;50.684;3.862;2023-04-25T02:54:59;8.07;;;3.97;;
10550;SDS011;5324;50.684;3.862;2023-04-25T02:57:25;13.13;;;4.30;;
10550;SDS011;5324;50.684;3.862;2023-04-25T02:59:51;10.80;;;4.43;;
10550;SDS011;5324;50.684;3.862;2023-04-25T03:02:17;11.10;;;5.20;;
10550;SDS011;5324;50.684;3.862;2023-04-25T03:04:43;10.93;;;4.53;;
10550;SDS011;5324;50.684;3.862;2023-04-25T03:07:09;7.63;;;4.10;;
10550;SDS011;5324;50.684;3.862;2023-04-25T03:09:35;10.77;;;4.20;;
10550;SDS011;5324;50.684;3.862;2023-04-25T03:12:01;9.23;;;4.40;;
10550;SDS011;5324;50.684;3.862;2023-04-25T03:14:27;12.43;;;4.97;;
10550;SDS011;5324;50.684;3.862;2023-04-25T03:16:53;11.80;;;5.13;;
10550;SDS011;5324;50.684;3.862;2023-04-25T03:19:19;7.50;;;3.90;;
10550;SDS011;5324;50.684;3.862;2023-04-25T03:21:45;9.00;;;3.97;;
10550;SDS011;5324;50.684;3.862;2023-04-25T03:24:11;10.17;;;4.40;;
10550;SDS011;5324;50.684;3.862;2023-04-25T03:26:38;13.10;;;4.30;;
10550;SDS011;5324;50.684;3.862;2023-04-25T03:29:04;10.67;;;4.80;;
10550;SDS011;5324;50.684;3.862;2023-04-25T03:31:30;11.00;;;4.73;;
10550;SDS011;5324;50.684;3.862;2023-04-25T03:33:56;9.27;;;4.43;;
10550;SDS011;5324;50.684;3.862;2023-04-25T03:36:22;9.50;;;4.53;;
10550;SDS011;5324;50.684;3.862;2023-04-25T03:38:48;13.67;;;4.30;;
10550;SDS011;5324;50.684;3.862;2023-04-25T03:41:15;12.93;;;4.50;;
10550;SDS011;5324;50.684;3.862;2023-04-25T03:43:41;11.37;;;4.20;;
10550;SDS011;5324;50.684;3.862;2023-04-25T03:46:07;10.50;;;4.70;;
10550;SDS011;5324;50.684;3.862;2023-04-25T03:48:33;11.27;;;4.40;;
10550;SDS011;5324;50.684;3.862;2023-04-25T03:50:59;12.70;;;4.80;;
10550;SDS011;5324;50.684;3.862;2023-04-25T03:53:25;13.27;;;4.63;;
10550;SDS011;5324;50.684;3.862;2023-04-25T03:55:51;8.47;;;4.10;;
10550;SDS011;5324;50.684;3.862;2023-04-25T03:58:17;11.30;;;4.70;;
10550;SDS011;5324;50.684;3.862;2023-04-25T04:00:43;10.90;;;4.60;;
10550;SDS011;5324;50.684;3.862;2023-04-25T04:03:09;10.67;;;4.43;;
10550;SDS011;5324;50.684;3.862;2023-04-25T04:05:36;10.70;;;3.70;;
10550;SDS011;5324;50.684;3.862;2023-04-25T04:08:02;12.00;;;4.57;;
10550;SDS011;5324;50.684;3.862;2023-04-25T04:10:28;13.83;;;4.37;;
10550;SDS011;5324;50.684;3.862;2023-04-25T04:12:54;10.37;;;4.30;;
10550;SDS011;5324;50.684;3.862;2023-04-25T04:15:20;11.30;;;4.23;;
10550;SDS011;5324;50.684;3.862;2023-04-25T04:17:47;10.57;;;3.93;;
10550;SDS011;5324;50.684;3.862;2023-04-25T04:20:13;9.50;;;3.93;;
10550;SDS011;5324;50.684;3.862;2023-04-25T04:22:39;10.17;;;3.37;;
10550;SDS011;5324;50.684;3.862;2023-04-25T04:25:05;8.27;;;3.47;;
10550;SDS011;5324;50.684;3.862;2023-04-25T04:27:32;8.57;;;3.57;;
10550;SDS011;5324;50.684;3.862;2023-04-25T04:29:58;8.50;;;3.43;;
10550;SDS011;5324;50.684;3.862;2023-04-25T04:32:24;10.13;;;3.40;;
10550;SDS011;5324;50.684;3.862;2023-04-25T04:34:50;9.33;;;3.50;;
10550;SDS011;5324;50.684;3.862;2023-04-25T04:37:18;6.43;;;3.57;;
10550;SDS011;5324;50.684;3.862;2023-04-25T04:39:44;7.70;;;3.00;;
10550;SDS011;5324;50.684;3.862;2023-04-25T04:42:10;10.43;;;3.13;;
10550;SDS011;5324;50.684;3.862;2023-04-25T04:44:36;6.53;;;2.77;;
10550;SDS011;5324;50.684;3.862;2023-04-25T04:47:03;5.47;;;3.03;;
10550;SDS011;5324;50.684;3.862;2023-04-25T04:49:31;6.43;;;2.97;;
10550;SDS011;5324;50.684;3.862;2023-04-25T04:51:57;10.10;;;3.63;;
10550;SDS011;5324;50.684;3.862;2023-04-25T04:54:24;6.77;;;3.70;;
10550;SDS011;5324;50.684;3.862;2023-04-25T04:56:50;9.37;;;3.20;;
10550;SDS011;5324;50.684;3.862;2023-04-25T04:59:17;8.90;;;4.00;;
10550;SDS011;5324;50.684;3.862;2023-04-25T05:01:43;8.37;;;3.23;;
10550;SDS011;5324;50.684;3.862;2023-04-25T05:04:09;10.13;;;3.83;;
10550;SDS011;5324;50.684;3.862;2023-04-25T05:06:35;15.47;;;4.10;;
10550;SDS011;5324;50.684;3.862;2023-04-25T05:09:01;7.67;;;3.40;;
10550;SDS011;5324;50.684;3.862;2023-04-25T05:11:27;9.83;;;3.53;;
10550;SDS011;5324;50.684;3.862;2023-04-25T05:13:53;9.70;;;3.47;;
10550;SDS011;5324;50.684;3.862;2023-04-25T05:16:20;14.37;;;3.73;;
10550;SDS011;5324;50.684;3.862;2023-04-25T05:18:48;12.97;;;3.70;;
10550;SDS011;5324;50.684;3.862;2023-04-25T05:21:14;8.30;;;3.57;;
10550;SDS011;5324;50.684;3.862;2023-04-25T05:23:40;10.40;;;3.00;;
10550;SDS011;5324;50.684;3.862;2023-04-25T05:26:06;18.87;;;4.30;;
10550;SDS011;5324;50.684;3.862;2023-04-25T05:28:38;7.67;;;3.63;;
10550;SDS011;5324;50.684;3.862;2023-04-25T05:31:04;13.27;;;4.23;;
10550;SDS011;5324;50.684;3.862;2023-04-25T05:33:30;10.73;;;5.27;;
10550;SDS011;5324;50.684;3.862;2023-04-25T05:35:56;14.27;;;4.83;;
10550;SDS011;5324;50.684;3.862;2023-04-25T05:38:22;15.37;;;4.70;;
10550;SDS011;5324;50.684;3.862;2023-04-25T05:40:48;19.40;;;6.50;;
10550;SDS011;5324;50.684;3.862;2023-04-25T05:43:14;16.13;;;4.73;;
10550;SDS011;5324;50.684;3.862;2023-04-25T05:45:40;12.83;;;3.80;;
10550;SDS011;5324;50.684;3.862;2023-04-25T05:48:06;13.93;;;4.60;;
10550;SDS011;5324;50.684;3.862;2023-04-25T05:50:32;10.07;;;4.53;;
10550;SDS011;5324;50.684;3.862;2023-04-25T05:52:58;11.13;;;4.47;;
10550;SDS011;5324;50.684;3.862;2023-04-25T05:55:24;17.90;;;5.03;;
10550;SDS011;5324;50.684;3.862;2023-04-25T05:57:50;15.87;;;5.67;;
10550;SDS011;5324;50.684;3.862;2023-04-25T06:00:16;8.53;;;4.33;;
10550;SDS011;5324;50.684;3.862;2023-04-25T06:02:43;13.90;;;5.03;;
10550;SDS011;5324;50.684;3.862;2023-04-25T06:05:10;16.77;;;5.13;;
10550;SDS011;5324;50.684;3.862;2023-04-25T06:07:36;13.43;;;5.07;;
10550;SDS011;5324;50.684;3.862;2023-04-25T06:10:02;13.20;;;5.00;;
10550;SDS011;5324;50.684;3.862;2023-04-25T06:12:31;17.40;;;5.07;;
10550;SDS011;5324;50.684;3.862;2023-04-25T06:14:58;14.40;;;4.93;;
10550;SDS011;5324;50.684;3.862;2023-04-25T06:17:24;22.27;;;5.00;;
10550;SDS011;5324;50.684;3.862;2023-04-25T06:19:50;12.93;;;4.87;;
10550;SDS011;5324;50.684;3.862;2023-04-25T06:22:16;21.67;;;4.77;;
10550;SDS011;5324;50.684;3.862;2023-04-25T06:24:42;9.10;;;4.60;;
10550;SDS011;5324;50.684;3.862;2023-04-25T06:27:08;12.23;;;4.73;;
10550;SDS011;5324;50.684;3.862;2023-04-25T06:29:34;14.00;;;5.23;;
10550;SDS011;5324;50.684;3.862;2023-04-25T06:32:00;15.33;;;4.97;;
10550;SDS011;5324;50.684;3.862;2023-04-25T06:34:26;14.17;;;4.57;;
10550;SDS011;5324;50.684;3.862;2023-04-25T06:36:52;15.07;;;5.27;;
10550;SDS011;5324;50.684;3.862;2023-04-25T06:39:18;12.80;;;5.53;;
10550;SDS011;5324;50.684;3.862;2023-04-25T06:41:45;14.67;;;5.63;;
10550;SDS011;5324;50.684;3.862;2023-04-25T06:44:11;14.80;;;5.90;;
10550;SDS011;5324;50.684;3.862;2023-04-25T06:46:37;9.30;;;5.50;;
10550;SDS011;5324;50.684;3.862;2023-04-25T06:49:04;11.47;;;5.73;;
10550;SDS011;5324;50.684;3.862;2023-04-25T06:51:30;9.93;;;5.07;;
10550;SDS011;5324;50.684;3.862;2023-04-25T06:53:56;14.73;;;6.57;;
10550;SDS011;5324;50.684;3.862;2023-04-25T06:56:22;18.47;;;7.40;;
10550;SDS011;5324;50.684;3.862;2023-04-25T06:58:49;7.83;;;4.80;;
10550;SDS011;5324;50.684;3.862;2023-04-25T07:01:15;12.53;;;5.10;;
10550;SDS011;5324;50.684;3.862;2023-04-25T07:03:41;11.23;;;5.13;;
10550;SDS011;5324;50.684;3.862;2023-04-25T07:06:07;12.80;;;5.73;;
10550;SDS011;5324;50.684;3.862;2023-04-25T07:08:33;10.53;;;4.77;;
10550;SDS011;5324;50.684;3.862;2023-04-25T07:10:59;12.97;;;5.10;;
10550;SDS011;5324;50.684;3.862;2023-04-25T07:13:25;13.23;;;5.30;;
10550;SDS011;5324;50.684;3.862;2023-04-25T07:15:51;11.40;;;5.30;;
10550;SDS011;5324;50.684;3.862;2023-04-25T07:18:17;14.17;;;5.27;;
10550;SDS011;5324;50.684;3.862;2023-04-25T07:20:43;11.40;;;5.20;;
10550;SDS011;5324;50.684;3.862;2023-04-25T07:23:09;14.93;;;5.90;;
10550;SDS011;5324;50.684;3.862;2023-04-25T07:25:35;17.53;;;5.50;;
10550;SDS011;5324;50.684;3.862;2023-04-25T07:28:01;13.80;;;5.47;;
10550;SDS011;5324;50.684;3.862;2023-04-25T07:30:27;11.90;;;5.17;;
10550;SDS011;5324;50.684;3.862;2023-04-25T07:32:53;12.43;;;5.10;;
10550;SDS011;5324;50.684;3.862;2023-04-25T07:35:20;11.50;;;4.37;;
10550;SDS011;5324;50.684;3.862;2023-04-25T07:37:46;11.17;;;5.03;;
10550;SDS011;5324;50.684;3.862;2023-04-25T07:40:12;11.33;;;4.57;;
10550;SDS011;5324;50.684;3.862;2023-04-25T07:42:40;11.53;;;3.67;;
10550;SDS011;5324;50.684;3.862;2023-04-25T07:45:06;8.77;;;3.97;;
10550;SDS011;5324;50.684;3.862;2023-04-25T07:47:34;12.47;;;3.93;;
10550;SDS011;5324;50.684;3.862;2023-04-25T07:50:00;10.77;;;4.40;;
10550;SDS011;5324;50.684;3.862;2023-04-25T07:52:26;14.10;;;4.97;;
10550;SDS011;5324;50.684;3.862;2023-04-25T07:54:52;10.07;;;4.43;;
10550;SDS011;5324;50.684;3.862;2023-04-25T07:57:18;13.33;;;4.17;;
10550;SDS011;5324;50.684;3.862;2023-04-25T07:59:45;8.90;;;5.00;;
10550;SDS011;5324;50.684;3.862;2023-04-25T08:02:11;9.13;;;4.10;;
10550;SDS011;5324;50.684;3.862;2023-04-25T08:04:37;10.30;;;4.63;;
10550;SDS011;5324;50.684;3.862;2023-04-25T08:07:03;11.43;;;4.47;;
10550;SDS011;5324;50.684;3.862;2023-04-25T08:09:29;9.43;;;4.70;;
10550;SDS011;5324;50.684;3.862;2023-04-25T08:11:59;10.43;;;4.10;;
10550;SDS011;5324;50.684;3.862;2023-04-25T08:14:26;15.63;;;4.30;;
10550;SDS011;5324;50.684;3.862;2023-04-25T08:16:52;9.97;;;3.40;;
10550;SDS011;5324;50.684;3.862;2023-04-25T08:19:18;12.20;;;4.17;;
10550;SDS011;5324;50.684;3.862;2023-04-25T08:21:44;8.13;;;3.50;;
10550;SDS011;5324;50.684;3.862;2023-04-25T08:24:10;7.37;;;3.47;;
10550;SDS011;5324;50.684;3.862;2023-04-25T08:26:36;9.87;;;3.60;;
10550;SDS011;5324;50.684;3.862;2023-04-25T08:29:03;8.13;;;3.67;;
10550;SDS011;5324;50.684;3.862;2023-04-25T08:31:30;10.13;;;3.83;;
10550;SDS011;5324;50.684;3.862;2023-04-25T08:33:56;6.33;;;3.33;;
10550;SDS011;5324;50.684;3.862;2023-04-25T08:36:22;9.93;;;3.40;;
10550;SDS011;5324;50.684;3.862;2023-04-25T08:38:49;10.60;;;4.90;;
10550;SDS011;5324;50.684;3.862;2023-04-25T08:41:15;15.87;;;4.23;;
10550;SDS011;5324;50.684;3.862;2023-04-25T08:43:42;10.63;;;3.40;;
10550;SDS011;5324;50.684;3.862;2023-04-25T08:46:09;13.93;;;4.37;;
10550;SDS011;5324;50.684;3.862;2023-04-25T08:48:35;8.93;;;4.03;;
10550;SDS011;5324;50.684;3.862;2023-04-25T08:51:02;11.10;;;5.20;;
10550;SDS011;5324;50.684;3.862;2023-04-25T08:53:29;7.30;;;4.00;;
10550;SDS011;5324;50.684;3.862;2023-04-25T08:55:57;13.33;;;4.23;;
10550;SDS011;5324;50.684;3.862;2023-04-25T08:58:24;11.27;;;4.47;;
10550;SDS011;5324;50.684;3.862;2023-04-25T09:00:50;7.87;;;4.60;;
10550;SDS011;5324;50.684;3.862;2023-04-25T09:03:17;9.47;;;4.10;;
10550;SDS011;5324;50.684;3.862;2023-04-25T09:05:43;9.10;;;4.47;;
10550;SDS011;5324;50.684;3.862;2023-04-25T09:08:10;9.47;;;4.80;;
10550;SDS011;5324;50.684;3.862;2023-04-25T09:10:36;9.00;;;4.97;;
10550;SDS011;5324;50.684;3.862;2023-04-25T09:13:03;6.97;;;4.33;;
10550;SDS011;5324;50.684;3.862;2023-04-25T09:15:30;13.73;;;4.70;;
10550;SDS011;5324;50.684;3.862;2023-04-25T09:17:56;7.53;;;4.80;;
10550;SDS011;5324;50.684;3.862;2023-04-25T09:20:22;8.67;;;4.20;;
10550;SDS011;5324;50.684;3.862;2023-04-25T09:22:49;6.43;;;3.60;;
10550;SDS011;5324;50.684;3.862;2023-04-25T09:25:26;6.60;;;2.60;;
10550;SDS011;5324;50.684;3.862;2023-04-25T09:27:53;8.57;;;2.87;;
10550;SDS011;5324;50.684;3.862;2023-04-25T09:30:30;8.70;;;3.47;;
10550;SDS011;5324;50.684;3.862;2023-04-25T09:32:57;6.60;;;2.77;;
10550;SDS011;5324;50.684;3.862;2023-04-25T09:35:26;9.30;;;2.80;;
10550;SDS011;5324;50.684;3.862;2023-04-25T09:37:52;5.40;;;2.43;;
10550;SDS011;5324;50.684;3.862;2023-04-25T09:40:18;6.97;;;2.40;;
10550;SDS011;5324;50.684;3.862;2023-04-25T09:42:44;3.30;;;2.20;;
10550;SDS011;5324;50.684;3.862;2023-04-25T09:45:12;4.53;;;2.33;;
10550;SDS011;5324;50.684;3.862;2023-04-25T09:47:41;4.80;;;2.50;;
10550;SDS011;5324;50.684;3.862;2023-04-25T09:50:15;4.93;;;2.40;;
10550;SDS011;5324;50.684;3.862;2023-04-25T09:52:41;4.80;;;2.70;;
10550;SDS011;5324;50.684;3.862;2023-04-25T09:55:08;8.10;;;2.80;;
10550;SDS011;5324;50.684;3.862;2023-04-25T09:57:34;6.20;;;3.07;;
10550;SDS011;5324;50.684;3.862;2023-04-25T10:00:05;5.83;;;2.40;;
10550;SDS011;5324;50.684;3.862;2023-04-25T10:02:37;6.93;;;2.80;;
10550;SDS011;5324;50.684;3.862;2023-04-25T10:05:05;5.83;;;2.73;;
10550;SDS011;5324;50.684;3.862;2023-04-25T10:07:31;5.87;;;3.03;;
10550;SDS011;5324;50.684;3.862;2023-04-25T10:10:03;8.03;;;3.40;;
10550;SDS011;5324;50.684;3.862;2023-04-25T10:12:29;6.53;;;3.00;;
10550;SDS011;5324;50.684;3.862;2023-04-25T10:15:00;5.00;;;3.00;;
10550;SDS011;5324;50.684;3.862;2023-04-25T10:17:26;4.63;;;2.83;;
10550;SDS011;5324;50.684;3.862;2023-04-25T10:19:52;2.90;;;1.87;;
10550;SDS011;5324;50.684;3.862;2023-04-25T10:24:46;5.67;;;2.40;;
10550;SDS011;5324;50.684;3.862;2023-04-25T10:27:12;3.07;;;2.07;;
10550;SDS011;5324;50.684;3.862;2023-04-25T10:29:38;2.60;;;1.63;;
10550;SDS011;5324;50.684;3.862;2023-04-25T10:32:05;3.33;;;2.13;;
10550;SDS011;5324;50.684;3.862;2023-04-25T10:34:41;4.87;;;2.17;;
10550;SDS011;5324;50.684;3.862;2023-04-25T10:37:10;5.07;;;2.30;;
10550;SDS011;5324;50.684;3.862;2023-04-25T10:39:38;5.10;;;1.90;;
10550;SDS011;5324;50.684;3.862;2023-04-25T10:42:04;3.67;;;2.10;;
10550;SDS011;5324;50.684;3.862;2023-04-25T10:44:31;4.40;;;1.80;;
10550;SDS011;5324;50.684;3.862;2023-04-25T10:47:00;14.50;;;2.40;;
10550;SDS011;5324;50.684;3.862;2023-04-25T10:49:40;4.40;;;1.47;;
10550;SDS011;5324;50.684;3.862;2023-04-25T10:54:52;6.03;;;2.00;;
10550;SDS011;5324;50.684;3.862;2023-04-25T10:57:51;5.93;;;2.20;;
10550;SDS011;5324;50.684;3.862;2023-04-25T11:02:43;4.73;;;1.73;;
10550;SDS011;5324;50.684;3.862;2023-04-25T11:05:10;2.97;;;1.63;;
10550;SDS011;5324;50.684;3.862;2023-04-25T11:07:51;3.97;;;1.93;;
10550;SDS011;5324;50.684;3.862;2023-04-25T11:10:19;4.83;;;1.77;;
10550;SDS011;5324;50.684;3.862;2023-04-25T11:12:46;5.30;;;1.80;;
10550;SDS011;5324;50.684;3.862;2023-04-25T11:15:12;3.10;;;1.30;;
10550;SDS011;5324;50.684;3.862;2023-04-25T11:17:39;3.67;;;1.77;;
10550;SDS011;5324;50.684;3.862;2023-04-25T11:20:06;5.03;;;1.57;;
10550;SDS011;5324;50.684;3.862;2023-04-25T11:22:36;5.57;;;1.83;;
10550;SDS011;5324;50.684;3.862;2023-04-25T11:25:06;3.97;;;1.77;;
10550;SDS011;5324;50.684;3.862;2023-04-25T11:27:32;5.67;;;1.63;;
10550;SDS011;5324;50.684;3.862;2023-04-25T11:30:09;4.87;;;1.33;;
10550;SDS011;5324;50.684;3.862;2023-04-25T11:32:35;6.53;;;1.93;;
10550;SDS011;5324;50.684;3.862;2023-04-25T11:35:01;5.20;;;1.70;;
10550;SDS011;5324;50.684;3.862;2023-04-25T11:37:28;3.17;;;1.60;;
10550;SDS011;5324;50.684;3.862;2023-04-25T11:39:54;3.90;;;1.70;;
10550;SDS011;5324;50.684;3.862;2023-04-25T11:42:20;3.77;;;1.83;;
10550;SDS011;5324;50.684;3.862;2023-04-25T11:44:46;2.63;;;1.50;;
10550;SDS011;5324;50.684;3.862;2023-04-25T11:47:12;3.93;;;1.93;;
10550;SDS011;5324;50.684;3.862;2023-04-25T11:49:38;5.53;;;1.83;;
10550;SDS011;5324;50.684;3.862;2023-04-25T11:52:05;3.50;;;1.97;;
10550;SDS011;5324;50.684;3.862;2023-04-25T11:54:34;3.40;;;2.03;;
10550;SDS011;5324;50.684;3.862;2023-04-25T11:57:00;8.13;;;2.83;;
10550;SDS011;5324;50.684;3.862;2023-04-25T11:59:26;4.63;;;2.60;;
10550;SDS011;5324;50.684;3.862;2023-04-25T12:01:53;4.00;;;2.90;;
10550;SDS011;5324;50.684;3.862;2023-04-25T12:06:46;2.57;;;2.20;;
10550;SDS011;5324;50.684;3.862;2023-04-25T12:09:16;5.27;;;2.40;;
10550;SDS011;5324;50.684;3.862;2023-04-25T12:11:44;4.37;;;2.60;;
10550;SDS011;5324;50.684;3.862;2023-04-25T12:14:11;13.40;;;4.63;;
10550;SDS011;5324;50.684;3.862;2023-04-25T12:16:43;6.40;;;3.97;;
10550;SDS011;5324;50.684;3.862;2023-04-25T12:19:13;4.70;;;2.70;;
10550;SDS011;5324;50.684;3.862;2023-04-25T12:21:39;5.10;;;3.03;;
10550;SDS011;5324;50.684;3.862;2023-04-25T12:24:09;6.60;;;2.93;;
10550;SDS011;5324;50.684;3.862;2023-04-25T12:29:33;6.17;;;2.97;;
10550;SDS011;5324;50.684;3.862;2023-04-25T12:31:59;6.33;;;2.27;;
10550;SDS011;5324;50.684;3.862;2023-04-25T12:34:28;3.30;;;1.80;;
10550;SDS011;5324;50.684;3.862;2023-04-25T12:36:56;4.20;;;2.30;;
10550;SDS011;5324;50.684;3.862;2023-04-25T12:39:23;4.73;;;2.53;;
10550;SDS011;5324;50.684;3.862;2023-04-25T12:41:50;2.97;;;1.53;;
10550;SDS011;5324;50.684;3.862;2023-04-25T12:44:17;3.73;;;2.33;;
10550;SDS011;5324;50.684;3.862;2023-04-25T12:46:43;4.67;;;2.63;;
10550;SDS011;5324;50.684;3.862;2023-04-25T12:49:10;3.27;;;2.13;;
10550;SDS011;5324;50.684;3.862;2023-04-25T12:51:36;3.80;;;1.63;;
10550;SDS011;5324;50.684;3.862;2023-04-25T12:54:04;3.70;;;2.13;;
10550;SDS011;5324;50.684;3.862;2023-04-25T12:56:31;4.67;;;2.00;;
10550;SDS011;5324;50.684;3.862;2023-04-25T12:58:57;3.00;;;1.80;;
10550;SDS011;5324;50.684;3.862;2023-04-25T13:01:23;5.00;;;1.30;;
10550;SDS011;5324;50.684;3.862;2023-04-25T13:03:50;2.10;;;1.30;;
10550;SDS011;5324;50.684;3.862;2023-04-25T13:06:16;4.80;;;1.53;;
10550;SDS011;5324;50.684;3.862;2023-04-25T13:08:43;1.70;;;1.20;;
10550;SDS011;5324;50.684;3.862;2023-04-25T13:11:09;3.17;;;1.40;;
10550;SDS011;5324;50.684;3.862;2023-04-25T13:13:36;5.80;;;1.60;;
10550;SDS011;5324;50.684;3.862;2023-04-25T13:16:03;2.73;;;1.20;;
10550;SDS011;5324;50.684;3.862;2023-04-25T13:18:29;5.90;;;1.60;;
10550;SDS011;5324;50.684;3.862;2023-04-25T13:20:56;2.97;;;1.50;;
10550;SDS011;5324;50.684;3.862;2023-04-25T13:23:22;4.53;;;1.30;;
10550;SDS011;5324;50.684;3.862;2023-04-25T13:25:48;4.60;;;1.57;;
10550;SDS011;5324;50.684;3.862;2023-04-25T13:28:14;3.93;;;1.50;;
10550;SDS011;5324;50.684;3.862;2023-04-25T13:30:41;2.17;;;1.70;;
10550;SDS011;5324;50.684;3.862;2023-04-25T13:33:07;1.80;;;1.17;;
10550;SDS011;5324;50.684;3.862;2023-04-25T13:35:33;1.60;;;1.20;;
10550;SDS011;5324;50.684;3.862;2023-04-25T13:38:00;2.50;;;1.57;;
10550;SDS011;5324;50.684;3.862;2023-04-25T13:40:26;2.43;;;1.47;;
10550;SDS011;5324;50.684;3.862;2023-04-25T13:42:52;3.07;;;1.60;;
10550;SDS011;5324;50.684;3.862;2023-04-25T13:45:19;3.97;;;1.50;;
10550;SDS011;5324;50.684;3.862;2023-04-25T13:47:45;2.83;;;1.37;;
10550;SDS011;5324;50.684;3.862;2023-04-25T13:50:12;3.10;;;1.30;;
10550;SDS011;5324;50.684;3.862;2023-04-25T13:52:39;3.87;;;1.60;;
10550;SDS011;5324;50.684;3.862;2023-04-25T13:55:05;3.97;;;1.40;;
10550;SDS011;5324;50.684;3.862;2023-04-25T13:57:32;3.20;;;1.43;;
10550;SDS011;5324;50.684;3.862;2023-04-25T13:59:58;1.63;;;1.40;;
10550;SDS011;5324;50.684;3.862;2023-04-25T14:02:24;3.97;;;1.50;;
10550;SDS011;5324;50.684;3.862;2023-04-25T14:04:50;4.20;;;1.87;;
10550;SDS011;5324;50.684;3.862;2023-04-25T14:07:17;1.97;;;1.47;;
10550;SDS011;5324;50.684;3.862;2023-04-25T14:09:44;2.93;;;1.50;;
10550;SDS011;5324;50.684;3.862;2023-04-25T14:12:10;2.10;;;1.20;;
10550;SDS011;5324;50.684;3.862;2023-04-25T14:14:36;6.47;;;1.90;;
10550;SDS011;5324;50.684;3.862;2023-04-25T14:17:03;3.33;;;1.60;;
10550;SDS011;5324;50.684;3.862;2023-04-25T14:19:29;5.60;;;1.80;;
10550;SDS011;5324;50.684;3.862;2023-04-25T14:21:55;3.50;;;1.50;;
10550;SDS011;5324;50.684;3.862;2023-04-25T14:24:21;1.93;;;1.60;;
10550;SDS011;5324;50.684;3.862;2023-04-25T14:26:47;4.70;;;1.70;;
10550;SDS011;5324;50.684;3.862;2023-04-25T14:29:13;3.53;;;1.63;;
10550;SDS011;5324;50.684;3.862;2023-04-25T14:31:39;3.53;;;1.50;;
10550;SDS011;5324;50.684;3.862;2023-04-25T14:34:06;2.70;;;1.90;;
10550;SDS011;5324;50.684;3.862;2023-04-25T14:36:32;2.73;;;1.40;;
10550;SDS011;5324;50.684;3.862;2023-04-25T14:38:59;4.17;;;1.60;;
10550;SDS011;5324;50.684;3.862;2023-04-25T14:41:25;3.03;;;1.37;;
10550;SDS011;5324;50.684;3.862;2023-04-25T14:43:52;3.13;;;1.60;;
10550;SDS011;5324;50.684;3.862;2023-04-25T14:46:18;3.13;;;2.00;;
10550;SDS011;5324;50.684;3.862;2023-04-25T14:48:45;5.07;;;1.73;;
10550;SDS011;5324;50.684;3.862;2023-04-25T14:51:12;4.63;;;1.80;;
10550;SDS011;5324;50.684;3.862;2023-04-25T14:53:39;1.87;;;1.53;;
10550;SDS011;5324;50.684;3.862;2023-04-25T14:56:05;5.80;;;1.90;;
10550;SDS011;5324;50.684;3.862;2023-04-25T14:58:32;4.43;;;1.60;;
10550;SDS011;5324;50.684;3.862;2023-04-25T15:00:58;3.03;;;1.60;;
10550;SDS011;5324;50.684;3.862;2023-04-25T15:03:25;3.33;;;1.50;;
10550;SDS011;5324;50.684;3.862;2023-04-25T15:05:51;1.97;;;1.47;;